Time;durP1;ratioP1;P1;durP2;ratioP2;P2;SDS_P1;SDS_P2;PMS_P1;PMS_P2;Temp;Humidity;BMP_temperature;BMP_pressure;BME280_temperature;BME280_humidity;BME280_pressure;Samples;Min_cycle;Max_cycle;Signal;HPM_P1;HPM_P2
2023/04/02 00:03:58;;;;;;;4.35;1.60;;;5.00;99.90;;;;;;20425547;29;20048;-47
2023/04/02 00:14:01;;;;;;;3.20;2.15;;;5.10;99.90;;;;;;20425256;29;20035;-49
2023/04/02 00:24:13;;;;;;;4.10;1.88;;;5.70;99.90;;;;;;20419838;29;20043;-59
2023/04/02 00:34:26;;;;;;;3.85;2.22;;;5.90;99.90;;;;;;20423529;29;20437;-60
2023/04/02 00:44:31;;;;;;;5.00;2.20;;;6.00;99.90;;;;;;20422348;29;20094;-47
2023/04/02 00:54:44;;;;;;;5.45;2.97;;;6.10;99.90;;;;;;20461407;29;20035;-59
2023/04/02 01:05:14;;;;;;;5.30;2.65;;;5.60;99.90;;;;;;20404707;29;20032;-47
2023/04/02 01:15:37;;;;;;;4.43;2.40;;;5.40;99.90;;;;;;20419815;29;20031;-60
2023/04/02 01:25:57;;;;;;;3.63;2.00;;;5.20;99.90;;;;;;20415899;29;20457;-59
2023/04/02 01:36:17;;;;;;;2.77;1.70;;;4.90;99.90;;;;;;20450072;29;20035;-59
2023/04/02 01:46:30;;;;;;;4.90;2.28;;;4.60;99.90;;;;;;20419610;29;20032;-49
2023/04/02 01:56:34;;;;;;;2.95;1.98;;;5.10;99.90;;;;;;20400506;29;20031;-59
2023/04/02 02:06:36;;;;;;;3.05;1.30;;;4.90;99.90;;;;;;20406058;29;20040;-47
2023/04/02 02:16:42;;;;;;;3.38;1.23;;;4.60;99.90;;;;;;20418293;29;20060;-51
2023/04/02 02:26:46;;;;;;;0.73;0.40;;;4.10;99.90;;;;;;20424773;29;20110;-47
2023/04/02 02:37:03;;;;;;;0.40;0.20;;;4.00;99.90;;;;;;20414908;29;20035;-59
2023/04/02 02:47:10;;;;;;;0.35;0.10;;;4.50;99.90;;;;;;20442140;29;20047;-49
2023/04/02 02:57:17;;;;;;;0.45;0.00;;;4.70;99.90;;;;;;20458619;29;20040;-51
2023/04/02 03:07:24;;;;;;;0.10;0.00;;;4.80;99.90;;;;;;20429167;29;20052;-59
2023/04/02 03:17:37;;;;;;;0.15;0.00;;;4.70;99.90;;;;;;20397184;29;20560;-48
2023/04/02 03:27:43;;;;;;;0.10;0.00;;;4.80;99.90;;;;;;20407642;29;20039;-48
2023/04/02 03:37:57;;;;;;;0.20;0.00;;;5.10;99.90;;;;;;20460497;29;20036;-52
2023/04/02 03:48:05;;;;;;;0.20;0.00;;;5.00;99.90;;;;;;20410366;29;20095;-51
2023/04/02 03:58:39;;;;;;;0.03;0.00;;;5.20;99.90;;;;;;20426116;29;20098;-50
2023/04/02 04:09:19;;;;;;;0.25;0.00;;;5.00;99.90;;;;;;20424819;29;20119;-47
2023/04/02 04:19:40;;;;;;;0.10;0.00;;;4.80;99.90;;;;;;20418922;29;20188;-48
2023/04/02 04:30:04;;;;;;;0.03;0.00;;;5.10;99.90;;;;;;20424558;29;20082;-48
2023/04/02 04:40:22;;;;;;;0.00;0.00;;;5.00;99.90;;;;;;20406382;29;20039;-51
2023/04/02 04:50:34;;;;;;;0.43;0.10;;;4.90;99.90;;;;;;20459059;29;20098;-48
2023/04/02 05:01:12;;;;;;;0.20;0.00;;;4.90;99.90;;;;;;20422346;29;20039;-47
2023/04/02 05:11:34;;;;;;;0.00;0.00;;;4.80;99.90;;;;;;20418847;29;20087;-49
2023/04/02 05:21:57;;;;;;;0.00;0.00;;;4.90;99.90;;;;;;20418953;29;20552;-49
2023/04/02 05:32:10;;;;;;;0.10;0.00;;;4.90;99.90;;;;;;20418648;29;20106;-47
2023/04/02 05:42:22;;;;;;;0.00;0.00;;;5.20;99.90;;;;;;20415810;29;20283;-49
2023/04/02 05:52:38;;;;;;;0.00;0.00;;;5.30;99.50;;;;;;20417963;29;20032;-47
2023/04/02 06:03:06;;;;;;;0.20;0.03;;;5.60;98.70;;;;;;20433348;29;20036;-50
2023/04/02 06:13:16;;;;;;;0.00;0.00;;;6.00;98.50;;;;;;20432862;29;20082;-47
2023/04/02 06:23:50;;;;;;;2.07;0.07;;;6.30;97.20;;;;;;20427973;29;20039;-50
2023/04/02 06:33:55;;;;;;;0.10;0.00;;;6.30;97.30;;;;;;20425238;29;20047;-51
2023/04/02 06:44:15;;;;;;;0.00;0.00;;;6.30;96.70;;;;;;20473011;29;20492;-60
2023/04/02 06:54:31;;;;;;;0.30;0.00;;;6.60;95.90;;;;;;20466643;29;20040;-60
2023/04/02 07:04:38;;;;;;;0.00;0.00;;;6.80;95.10;;;;;;20413309;29;20103;-58
2023/04/02 07:14:40;;;;;;;0.10;0.00;;;6.80;95.30;;;;;;20430461;29;20036;-50
2023/04/02 07:24:44;;;;;;;0.10;0.10;;;7.00;95.00;;;;;;20407993;29;20043;-60
2023/04/02 07:34:46;;;;;;;0.10;0.00;;;7.30;93.70;;;;;;20492864;29;20051;-51
2023/04/02 07:44:48;;;;;;;0.10;0.00;;;7.60;93.10;;;;;;20434428;29;20047;-47
2023/04/02 07:54:50;;;;;;;0.38;0.00;;;7.80;93.20;;;;;;20426696;29;20031;-49
2023/04/02 08:04:51;;;;;;;0.00;0.00;;;8.10;91.50;;;;;;20482942;29;20043;-47
2023/04/02 08:14:53;;;;;;;0.10;0.00;;;7.90;90.80;;;;;;20431596;29;20028;-48
2023/04/02 08:24:55;;;;;;;0.10;0.03;;;8.20;93.10;;;;;;20419473;29;20040;-49
2023/04/02 08:34:57;;;;;;;0.88;0.05;;;9.20;96.00;;;;;;20423802;29;20385;-51
2023/04/02 08:45:17;;;;;;;0.30;0.10;;;9.50;95.10;;;;;;20422845;29;20393;-50
2023/04/02 08:55:41;;;;;;;0.10;0.00;;;9.70;95.40;;;;;;20378114;29;20071;-49
2023/04/02 09:05:49;;;;;;;0.40;0.05;;;10.20;93.40;;;;;;20469254;29;20036;-61
2023/04/02 09:16:01;;;;;;;1.10;0.40;;;11.10;94.00;;;;;;20342324;29;20032;-62
2023/04/02 09:26:31;;;;;;;1.77;0.93;;;11.80;93.20;;;;;;20402901;29;20813;-62
2023/04/02 09:36:40;;;;;;;4.37;2.40;;;12.80;92.70;;;;;;20490946;29;20042;-48
2023/04/02 09:47:02;;;;;;;7.20;4.88;;;12.80;94.00;;;;;;20402459;29;20047;-61
2023/04/02 09:57:05;;;;;;;11.32;7.70;;;12.70;98.50;;;;;;20419183;29;20032;-48
2023/04/02 10:07:27;;;;;;;13.95;9.43;;;13.20;99.90;;;;;;20481592;29;20083;-49
2023/04/02 10:17:33;;;;;;;13.27;8.93;;;13.40;99.90;;;;;;20418103;29;20140;-50
2023/04/02 10:27:41;;;;;;;13.05;8.93;;;12.60;99.90;;;;;;20414079;29;20031;-49
2023/04/02 10:37:46;;;;;;;13.43;9.35;;;11.40;99.90;;;;;;20417139;29;20536;-60
2023/04/02 10:47:59;;;;;;;15.13;9.80;;;10.60;99.90;;;;;;20445777;29;20027;-59
2023/04/02 10:58:07;;;;;;;13.70;8.95;;;9.70;99.90;;;;;;20452417;29;20051;-56
2023/04/02 11:08:21;;;;;;;12.13;7.53;;;8.70;99.90;;;;;;20430766;29;20043;-48
2023/04/02 11:18:37;;;;;;;9.55;6.57;;;8.40;99.90;;;;;;20427802;29;20098;-59
2023/04/02 11:28:40;;;;;;;11.48;6.78;;;8.20;99.90;;;;;;20443968;29;20039;-50
2023/04/02 11:38:45;;;;;;;12.65;8.13;;;7.90;99.90;;;;;;20483375;29;20044;-48
2023/04/02 11:48:47;;;;;;;13.00;8.50;;;7.30;99.90;;;;;;20427959;29;20040;-59
2023/04/02 11:59:07;;;;;;;8.90;4.95;;;6.90;99.90;;;;;;20417750;29;20528;-52
2023/04/02 12:09:22;;;;;;;11.50;6.00;;;6.70;99.90;;;;;;20477661;29;20548;-48
2023/04/02 12:19:25;;;;;;;9.45;5.03;;;6.80;99.90;;;;;;20421205;29;20115;-50
2023/04/02 12:29:28;;;;;;;3.55;1.98;;;7.50;99.90;;;;;;20424053;29;20047;-51
2023/04/02 12:39:32;;;;;;;3.25;2.15;;;8.10;99.90;;;;;;20421816;29;20094;-60
2023/04/02 12:49:42;;;;;;;2.50;1.90;;;8.50;99.90;;;;;;20454684;29;20113;-52
2023/04/02 12:59:43;;;;;;;5.77;2.90;;;8.90;99.90;;;;;;20430559;29;20146;-47
2023/04/02 13:09:57;;;;;;;4.13;2.83;;;10.50;99.90;;;;;;20421717;29;20071;-52
2023/04/02 13:20:33;;;;;;;4.75;1.85;;;11.50;99.90;;;;;;20416824;29;20103;-51
2023/04/02 13:30:34;;;;;;;3.05;2.03;;;12.70;99.90;;;;;;20450571;29;20039;-64
2023/04/02 13:40:36;;;;;;;3.35;1.75;;;13.50;99.90;;;;;;20459982;29;20065;-64
2023/04/02 13:50:38;;;;;;;2.53;1.50;;;14.00;98.20;;;;;;20420311;29;20091;-64
2023/04/02 14:00:40;;;;;;;1.40;1.02;;;14.70;94.30;;;;;;20436922;29;20071;-50
2023/04/02 14:10:44;;;;;;;1.42;0.70;;;14.50;94.30;;;;;;20431287;29;20086;-63
2023/04/02 14:20:58;;;;;;;0.30;0.20;;;14.40;92.80;;;;;;20435863;29;20039;-48
2023/04/02 14:31:19;;;;;;;0.63;0.20;;;13.10;92.20;;;;;;20456917;29;20385;-63
2023/04/02 14:41:32;;;;;;;0.82;0.45;;;13.00;93.50;;;;;;20432828;29;20360;-50
2023/04/02 14:51:40;;;;;;;2.22;0.32;;;13.00;94.10;;;;;;20495260;29;20036;-61
2023/04/02 15:01:48;;;;;;;1.05;0.30;;;13.20;93.80;;;;;;20428259;29;20039;-61
2023/04/02 15:11:58;;;;;;;1.75;0.40;;;13.80;91.90;;;;;;20473872;29;20078;-50
2023/04/02 15:22:15;;;;;;;0.40;0.40;;;13.80;92.10;;;;;;20489640;29;20096;-50
2023/04/02 15:32:35;;;;;;;0.60;0.30;;;12.90;91.40;;;;;;20425546;29;20082;-52
2023/04/02 15:42:41;;;;;;;1.53;0.67;;;11.50;93.10;;;;;;20487837;29;20433;-49
2023/04/02 15:53:08;;;;;;;0.98;0.70;;;10.70;97.10;;;;;;20479713;29;20039;-58
2023/04/02 16:03:46;;;;;;;1.08;0.50;;;10.30;97.20;;;;;;20426513;29;20036;-51
2023/04/02 16:13:48;;;;;;;0.60;0.35;;;10.20;97.80;;;;;;20425523;29;20095;-53
2023/04/02 16:23:50;;;;;;;0.70;0.30;;;9.80;97.80;;;;;;20420652;29;20061;-59
2023/04/02 16:34:13;;;;;;;2.47;0.60;;;9.10;98.70;;;;;;20458363;29;20023;-58
2023/04/02 16:44:49;;;;;;;1.60;0.60;;;8.50;99.90;;;;;;20487181;29;20078;-59
2023/04/02 16:55:03;;;;;;;2.13;0.40;;;8.20;99.90;;;;;;20457589;29;20036;-59
2023/04/02 17:05:11;;;;;;;1.00;0.60;;;7.80;99.90;;;;;;20422733;29;20044;-52
2023/04/02 17:15:36;;;;;;;1.48;0.50;;;7.20;99.90;;;;;;20420932;29;20043;-58
2023/04/02 17:25:46;;;;;;;1.15;0.47;;;6.30;99.90;;;;;;20416751;29;20099;-58
2023/04/02 17:36:00;;;;;;;1.40;0.37;;;5.70;99.90;;;;;;20437571;29;20074;-49
2023/04/02 17:46:12;;;;;;;1.05;0.50;;;5.10;99.90;;;;;;20485745;29;20508;-58
2023/04/02 17:56:25;;;;;;;0.70;0.47;;;4.50;99.90;;;;;;20442855;28;20039;-56
2023/04/02 18:06:49;;;;;;;2.00;0.60;;;4.10;99.90;;;;;;20414848;29;20031;-59
2023/04/02 18:17:09;;;;;;;2.20;0.85;;;3.70;99.90;;;;;;20442620;29;20036;-50
2023/04/02 18:27:43;;;;;;;1.40;0.50;;;3.50;99.90;;;;;;20429874;29;20039;-52
2023/04/02 18:37:50;;;;;;;1.77;0.40;;;3.30;99.90;;;;;;20459762;29;20031;-49
2023/04/02 18:48:07;;;;;;;1.13;0.60;;;3.20;99.90;;;;;;20496553;29;20035;-48
2023/04/02 18:58:16;;;;;;;0.80;0.50;;;3.10;99.90;;;;;;20428651;29;20099;-48
2023/04/02 19:08:56;;;;;;;1.13;0.52;;;3.00;99.90;;;;;;20426860;29;20505;-58
2023/04/02 19:19:36;;;;;;;1.02;0.45;;;3.00;99.90;;;;;;20180500;29;20053;-58
2023/04/02 19:30:07;;;;;;;0.68;0.40;;;3.20;99.90;;;;;;19948570;29;20111;-59
2023/04/02 19:40:24;;;;;;;0.90;0.30;;;3.40;99.90;;;;;;19951349;29;20552;-58
2023/04/02 19:50:26;;;;;;;0.90;0.50;;;3.40;99.90;;;;;;20064226;29;20052;-57
2023/04/02 20:00:28;;;;;;;0.82;0.40;;;3.60;99.90;;;;;;20305130;29;20051;-48
2023/04/02 20:10:30;;;;;;;1.85;0.55;;;3.50;99.90;;;;;;20466923;29;20055;-59
2023/04/02 20:20:32;;;;;;;1.50;0.60;;;3.40;99.90;;;;;;20420409;29;20067;-59
2023/04/02 20:30:34;;;;;;;1.23;0.60;;;3.40;99.90;;;;;;20419640;29;20028;-57
2023/04/02 20:40:41;;;;;;;0.43;0.30;;;3.20;99.90;;;;;;20446772;29;20082;-49
2023/04/02 20:50:44;;;;;;;1.77;0.40;;;3.20;99.90;;;;;;20502783;29;20039;-58
2023/04/02 21:00:47;;;;;;;2.20;0.30;;;3.20;99.90;;;;;;20496085;29;20373;-51
2023/04/02 21:10:49;;;;;;;1.75;0.50;;;3.10;99.90;;;;;;20460504;29;20359;-50
2023/04/02 21:21:03;;;;;;;0.63;0.40;;;3.00;99.90;;;;;;20416726;29;20036;-48
2023/04/02 21:31:09;;;;;;;0.40;0.20;;;2.80;99.90;;;;;;20453878;29;20047;-49
2023/04/02 21:41:21;;;;;;;0.93;0.30;;;2.60;99.90;;;;;;20455733;29;20031;-51
2023/04/02 21:51:28;;;;;;;0.55;0.20;;;2.60;99.90;;;;;;20419438;29;20117;-50
2023/04/02 22:01:36;;;;;;;2.03;0.30;;;2.50;99.90;;;;;;20449218;29;20558;-51
2023/04/02 22:11:46;;;;;;;0.82;0.20;;;2.50;99.90;;;;;;20451079;29;20094;-48
2023/04/02 22:21:48;;;;;;;0.50;0.20;;;2.40;99.90;;;;;;20415473;29;20043;-50
2023/04/02 22:31:50;;;;;;;1.15;0.15;;;2.30;99.90;;;;;;20442854;29;20050;-49
2023/04/02 22:41:51;;;;;;;0.20;0.10;;;2.20;99.90;;;;;;20451774;28;20036;-49
2023/04/02 22:51:53;;;;;;;1.45;0.00;;;2.20;99.90;;;;;;20431995;29;20063;-49
2023/04/02 23:01:54;;;;;;;0.20;0.10;;;2.20;99.90;;;;;;20431089;29;20039;-51
2023/04/02 23:11:56;;;;;;;0.63;0.00;;;2.30;99.90;;;;;;20430468;29;20063;-49
2023/04/02 23:21:57;;;;;;;0.25;0.10;;;2.30;99.90;;;;;;20425700;29;20040;-48
2023/04/02 23:31:59;;;;;;;0.47;0.10;;;2.40;99.90;;;;;;20471196;29;20385;-49
2023/04/02 23:42:01;;;;;;;0.00;0.00;;;2.40;99.90;;;;;;20457414;29;20044;-50
2023/04/02 23:52:03;;;;;;;0.30;0.05;;;2.70;99.90;;;;;;20426388;29;20039;-50
